.
WxDataArchive / Data Records for 2009-08-30
2009-08-29 August 2009 2009-08-31

Data Records for Sunday, 30 August 2009

Time	Temp	Chill	HIndex	Humid	Dewpt	 Wind 	HiWind	WindDir	Rain 	Barom 
-----	----	-----	------	-----	-----	------	------	-------	-----	----- 
00:00	55.7	55.7	55.7	86	51.6	0	0	---	0.00	29.907 
00:05	55.7	55.7	55.7	86	51.6	0	1	315	0.00	29.907 
00:10	55.7	55.7	55.7	85	51.3	0	0	---	0.00	29.907 
00:15	55.9	55.9	55.9	85	51.5	0	1	315	0.00	29.909 
00:20	55.9	55.9	55.9	85	51.5	0	1	315	0.00	29.909 
00:25	56.0	56.0	56.0	85	51.6	0	1	315	0.00	29.909 
00:30	56.0	56.0	56.0	85	51.6	0	0	---	0.00	29.908 
00:35	55.9	55.9	55.9	85	51.5	0	1	315	0.00	29.908 
00:40	55.9	55.9	55.9	85	51.5	0	0	---	0.00	29.908 
00:45	55.7	55.7	55.7	86	51.6	0	0	---	0.00	29.910 
00:50	55.7	55.7	55.7	86	51.6	0	1	315	0.00	29.910 
00:55	55.7	55.7	55.7	86	51.6	0	1	315	0.00	29.910 
01:00	55.7	55.7	55.7	86	51.6	0	1	315	0.00	29.910 
01:05	55.7	55.7	55.7	86	51.6	0	1	315	0.00	29.910 
01:10	55.7	55.7	55.7	85	51.3	0	2	315	0.00	29.910 
01:15	55.9	55.9	55.9	85	51.5	0	1	315	0.00	29.909 
01:20	55.9	55.9	55.9	85	51.5	0	1	292	0.00	29.909 
01:25	55.9	55.9	55.9	85	51.5	0	1	292	0.00	29.909 
01:30	55.9	55.9	55.9	85	51.5	0	1	292	0.00	29.917 
01:35	55.9	55.9	55.9	85	51.5	0	1	292	0.00	29.917 
01:40	55.9	55.9	55.9	85	51.5	0	1	292	0.00	29.917 
01:45	55.9	55.9	55.9	85	51.5	0	1	292	0.00	29.921 
01:50	55.9	55.9	55.9	85	51.5	0	1	292	0.00	29.921 
01:55	55.7	55.7	55.7	85	51.3	0	1	292	0.00	29.921 
02:00	55.7	55.7	55.7	86	51.6	0	1	292	0.00	29.920 
02:05	55.7	55.7	55.7	85	51.3	0	3	248	0.00	29.920 
02:10	55.7	55.7	55.7	85	51.3	0	2	248	0.00	29.920 
02:15	55.9	55.9	55.9	85	51.5	0	2	248	0.00	29.917 
02:20	55.9	55.9	55.9	85	51.5	0	2	248	0.00	29.917 
02:25	55.9	55.9	55.9	85	51.5	0	2	248	0.00	29.917 
02:30	55.9	55.9	55.9	85	51.5	0	1	248	0.00	29.916 
02:35	55.7	55.7	55.7	85	51.3	0	1	248	0.00	29.916 
02:40	55.7	55.7	55.7	85	51.3	0	2	248	0.00	29.916 
02:45	55.7	55.7	55.7	85	51.3	0	2	248	0.00	29.918 
02:50	55.7	55.7	55.7	85	51.3	0	2	248	0.00	29.918 
02:55	55.6	55.6	55.6	85	51.2	0	2	248	0.00	29.918 
03:00	55.6	55.6	55.6	85	51.2	0	1	248	0.00	29.918 
03:05	55.4	55.4	55.4	85	51.0	0	2	248	0.00	29.918 
03:10	55.4	55.4	55.4	85	51.0	0	1	248	0.00	29.918 
03:15	55.3	55.3	55.3	85	50.9	0	1	248	0.00	29.921 
03:20	55.1	55.1	55.1	85	50.7	0	2	248	0.00	29.921 
03:25	55.1	55.1	55.1	85	50.7	0	2	248	0.00	29.921 
03:30	55.1	55.1	55.1	86	51.0	0	3	248	0.00	29.922 
03:35	55.0	55.0	55.0	86	50.9	0	2	248	0.00	29.922 
03:40	55.0	55.0	55.0	86	50.9	0	2	248	0.00	29.922 
03:45	55.0	55.0	55.0	86	50.9	0	1	248	0.00	29.923 
03:50	55.1	55.1	55.1	86	51.0	0	1	248	0.00	29.923 
03:55	55.1	55.1	55.1	86	51.0	0	2	248	0.00	29.923 
04:00	55.1	55.1	55.1	86	51.0	0	2	248	0.00	29.926 
04:05	55.1	55.1	55.1	86	51.0	1	3	248	0.00	29.926 
04:10	55.1	55.1	55.1	86	51.0	0	2	248	0.00	29.926 
04:15	55.3	55.3	55.3	86	51.2	0	1	248	0.00	29.927 
04:20	55.3	55.3	55.3	86	51.2	0	1	248	0.00	29.927 
04:25	55.4	55.4	55.4	86	51.3	0	2	248	0.00	29.927 
04:30	55.4	55.4	55.4	86	51.3	0	2	248	0.00	29.932 
04:35	55.4	55.4	55.4	86	51.3	0	2	270	0.00	29.932 
04:40	55.3	55.3	55.3	87	51.5	0	1	270	0.00	29.932 
04:45	55.1	55.1	55.1	87	51.3	0	2	270	0.00	29.937 
04:50	55.0	55.0	55.0	88	51.5	0	2	292	0.00	29.937 
04:55	54.8	54.8	54.8	88	51.3	0	3	292	0.00	29.937 
05:00	54.7	54.7	54.7	88	51.2	0	3	292	0.00	29.937 
05:05	54.7	54.7	54.7	88	51.2	0	2	292	0.00	29.937 
05:10	54.7	54.7	54.7	88	51.2	0	1	292	0.00	29.937 
05:15	54.5	54.5	54.5	89	51.3	0	2	292	0.00	29.939 
05:20	54.5	54.5	54.5	89	51.3	0	3	270	0.00	29.939 
05:25	54.7	54.7	54.7	89	51.5	1	3	270	0.00	29.939 
05:30	54.7	54.7	54.7	90	51.8	1	2	270	0.00	29.944 
05:35	54.7	54.7	54.7	90	51.8	0	3	292	0.00	29.944 
05:40	54.7	54.7	54.7	90	51.8	0	2	292	0.00	29.944 
05:45	54.7	54.7	54.7	91	52.1	0	2	315	0.00	29.950 
05:50	54.5	54.5	54.5	91	51.9	0	1	315	0.00	29.950 
05:55	54.7	54.7	54.7	92	52.4	0	3	315	0.00	29.950 
06:00	54.7	54.7	54.7	92	52.4	0	1	315	0.00	29.954 
06:05	54.8	54.8	54.8	92	52.5	0	1	315	0.00	29.954 
06:10	54.8	54.8	54.8	92	52.5	0	2	315	0.00	29.954 
06:15	54.8	54.8	54.8	92	52.5	0	2	315	0.00	29.956 
06:20	54.8	54.8	54.8	92	52.5	0	1	315	0.00	29.956 
06:25	54.8	54.8	54.8	92	52.5	0	2	315	0.00	29.956 
06:30	54.7	54.7	54.7	92	52.4	0	1	315	0.00	29.965 
06:35	54.7	54.7	54.7	92	52.4	0	1	315	0.00	29.965 
06:40	54.7	54.7	54.7	92	52.4	0	2	315	0.00	29.965 
06:45	54.8	54.8	54.8	93	52.8	0	1	315	0.00	29.972 
06:50	55.0	55.0	55.0	92	52.7	0	1	315	0.00	29.972 
06:55	55.1	55.1	55.1	92	52.8	0	2	315	0.00	29.972 
07:00	55.1	55.1	55.1	92	52.8	1	3	315	0.00	29.985 
07:05	55.3	55.3	55.3	92	53.0	0	3	315	0.00	29.985 
07:10	55.4	55.4	55.4	91	52.8	0	2	315	0.00	29.985 
07:15	55.4	55.4	55.4	91	52.8	0	1	315	0.00	29.989 
07:20	55.6	55.6	55.6	91	53.0	0	1	315	0.00	29.989 
07:25	55.6	55.6	55.6	90	52.7	0	2	315	0.00	29.989 
07:30	55.6	55.6	55.6	90	52.7	0	2	315	0.00	29.994 
07:35	55.6	55.6	55.6	90	52.7	0	1	315	0.00	29.994 
07:40	55.6	55.6	55.6	89	52.4	0	1	315	0.00	29.994 
07:45	55.4	55.4	55.4	90	52.5	0	1	315	0.00	30.002 
07:50	55.6	55.6	55.6	89	52.4	0	2	315	0.00	30.002 
07:55	55.6	55.6	55.6	89	52.4	0	3	315	0.00	30.002 
08:00	55.7	55.7	55.7	89	52.5	0	0	---	0.00	30.016 
08:05	56.0	56.0	56.0	88	52.5	0	2	315	0.00	30.016 
08:10	56.2	56.2	56.2	88	52.7	0	2	315	0.00	30.016 
08:15	56.5	56.5	56.5	87	52.7	0	2	315	0.00	30.022 
08:20	56.6	56.6	56.6	86	52.5	0	2	315	0.00	30.022 
08:25	56.7	56.7	56.7	85	52.2	0	2	315	0.00	30.022 
08:30	56.9	56.9	56.9	84	52.1	0	1	315	0.00	30.032 
08:35	56.7	56.7	56.7	84	51.9	0	3	315	0.00	30.032 
08:40	56.7	56.7	56.7	83	51.6	1	4	315	0.00	30.032 
08:45	56.6	56.6	56.6	82	51.2	1	3	338	0.00	30.040 
08:50	56.7	56.7	56.7	82	51.3	0	2	338	0.00	30.040 
08:55	56.6	56.6	56.6	81	50.8	1	5	315	0.00	30.040 
09:00	56.6	56.6	56.6	81	50.8	1	4	292	0.00	30.051 
09:05	56.7	56.7	56.7	81	50.9	0	2	292	0.00	30.051 
09:10	56.9	56.9	56.9	79	50.5	1	3	315	0.00	30.051 
09:15	57.0	57.0	57.0	79	50.5	0	2	315	0.00	30.056 
09:20	57.2	57.2	57.2	79	50.7	0	3	292	0.00	30.056 
09:25	57.2	57.2	57.2	78	50.4	1	3	292	0.00	30.056 
09:30	57.0	57.0	57.0	78	50.2	0	1	315	0.00	30.066 
09:35	56.9	56.9	56.9	78	50.1	1	3	315	0.00	30.066 
09:40	57.5	57.5	57.5	79	51.0	0	3	315	0.00	30.066 
09:45	57.5	57.5	57.5	77	50.3	1	5	270	0.00	30.071 
09:50	57.3	57.3	57.3	77	50.1	1	3	270	0.00	30.071 
09:55	57.2	57.2	57.2	77	50.1	0	2	292	0.00	30.071 
10:00	57.3	57.3	57.3	78	50.5	0	2	292	0.00	30.076 
10:05	57.5	57.5	57.5	77	50.3	0	2	292	0.00	30.076 
10:10	57.6	57.6	57.6	76	50.1	0	1	315	0.00	30.076 
10:15	58.1	58.1	58.1	75	50.2	0	2	315	0.00	30.084 
10:20	58.3	58.3	58.3	74	50.0	0	2	315	0.00	30.084 
10:25	58.4	58.4	58.4	74	50.1	0	1	315	0.00	30.084 
10:30	59.0	59.0	59.0	73	50.4	0	2	315	0.00	30.086 
10:35	59.6	59.6	59.6	69	49.4	1	6	270	0.00	30.086 
10:40	60.1	60.1	60.1	71	50.7	0	2	315	0.00	30.086 
10:45	60.7	60.7	60.7	70	50.9	0	2	315	0.00	30.088 
10:50	61.0	61.0	61.0	67	50.0	1	2	0	0.00	30.088 
10:55	61.3	61.3	61.3	68	50.6	1	3	315	0.00	30.088 
11:00	61.8	61.8	61.8	66	50.3	1	5	158	0.00	30.091 
11:05	62.0	62.0	62.0	62	48.8	1	4	270	0.00	30.091 
11:10	62.1	62.1	62.1	63	49.3	1	4	315	0.00	30.091 
11:15	62.0	62.0	62.0	61	48.4	2	4	292	0.00	30.099 
11:20	61.5	61.5	61.5	61	47.9	1	5	292	0.00	30.099 
11:25	62.0	62.0	62.0	62	48.8	0	4	22	0.00	30.099 
11:30	62.6	62.6	62.6	61	49.0	1	5	45	0.00	30.102 
11:35	63.1	63.1	63.1	62	49.9	1	4	22	0.00	30.102 
11:40	63.7	63.7	63.7	58	48.6	1	4	112	0.00	30.102 
11:45	64.3	64.3	64.3	58	49.2	2	7	270	0.00	30.102 
11:50	64.7	64.7	64.7	57	49.1	1	6	292	0.00	30.102 
11:55	64.7	64.7	64.7	58	49.6	1	5	45	0.00	30.102 
12:00	64.7	64.7	64.7	55	48.2	1	7	45	0.00	30.106 
12:05	64.0	64.0	64.0	58	48.9	1	3	0	0.00	30.106 
12:10	63.2	63.2	63.2	60	49.1	1	3	0	0.00	30.106 
12:15	63.7	63.7	63.7	61	50.0	1	4	270	0.00	30.109 
12:20	64.3	64.3	64.3	61	50.6	1	4	45	0.00	30.109 
12:25	64.5	64.5	64.5	57	48.9	1	6	315	0.00	30.109 
12:30	64.3	64.3	64.3	59	49.7	1	4	315	0.00	30.106 
12:35	64.2	64.2	64.2	56	48.2	1	4	292	0.00	30.106 
12:40	64.7	64.7	64.7	58	49.6	1	5	90	0.00	30.106 
12:45	65.5	65.5	65.5	57	49.9	1	4	135	0.00	30.104 
12:50	65.3	65.3	65.3	58	50.1	0	2	45	0.00	30.104 
12:55	65.2	65.2	65.2	55	48.6	1	7	338	0.00	30.104 
13:00	65.2	65.2	65.2	59	50.5	0	2	315	0.00	30.101 
13:05	65.2	65.2	65.2	55	48.6	1	5	270	0.00	30.101 
13:10	64.7	64.7	64.7	54	47.7	1	5	292	0.00	30.101 
13:15	64.7	64.7	64.7	56	48.6	1	6	292	0.00	30.100 
13:20	65.2	65.2	65.2	57	49.6	1	4	22	0.00	30.100 
13:25	65.8	65.8	65.8	55	49.2	1	5	90	0.00	30.100 
13:30	66.4	66.4	66.4	57	50.7	1	3	112	0.00	30.098 
13:35	65.6	65.6	65.6	54	48.5	1	4	292	0.00	30.098 
13:40	65.3	65.3	65.3	55	48.7	1	3	292	0.00	30.098 
13:45	64.7	64.7	64.7	58	49.6	1	4	315	0.00	30.101 
13:50	65.2	65.2	65.2	56	49.1	1	2	338	0.00	30.101 
13:55	65.3	65.3	65.3	55	48.7	1	5	338	0.00	30.101 
14:00	65.3	65.3	65.3	58	50.1	0	3	45	0.00	30.100 
14:05	65.0	65.0	65.0	55	48.4	0	3	248	0.00	30.100 
14:10	65.3	65.3	65.3	59	50.6	0	3	270	0.00	30.100 
14:15	65.6	65.6	65.6	54	48.5	1	3	270	0.00	30.104 
14:20	64.8	64.8	64.8	54	47.8	1	3	0	0.00	30.104 
14:25	64.8	64.8	64.8	56	48.7	1	3	292	0.00	30.104 
14:30	65.5	65.5	65.5	53	47.9	1	4	292	0.00	30.109 
14:35	65.8	65.8	65.8	55	49.2	0	2	338	0.00	30.109 
14:40	66.3	66.3	66.3	53	48.6	1	3	338	0.00	30.109 
14:45	65.5	65.5	65.5	54	48.4	1	3	292	0.00	30.112 
14:50	65.8	65.8	65.8	55	49.2	1	4	90	0.00	30.112 
14:55	66.6	66.6	66.6	53	48.9	1	3	90	0.00	30.112 
15:00	65.8	65.8	65.8	52	47.7	1	2	68	0.00	30.113 
15:05	65.8	65.8	65.8	54	48.7	0	2	315	0.00	30.113 
15:10	66.4	66.4	66.4	53	48.7	0	1	315	0.00	30.113 
15:15	66.0	66.0	66.0	54	48.9	1	3	338	0.00	30.115 
15:20	65.5	65.5	65.5	56	49.4	0	1	0	0.00	30.115 
15:25	65.3	65.3	65.3	55	48.7	0	2	22	0.00	30.115 
15:30	66.1	66.1	66.1	55	49.5	0	1	22	0.00	30.115 
15:35	67.3	67.3	67.3	53	49.6	1	3	22	0.00	30.115 
15:40	67.1	67.1	67.1	53	49.4	0	3	292	0.00	30.115 
15:45	66.3	66.3	66.3	54	49.1	0	2	315	0.00	30.116 
15:50	66.0	66.0	66.0	53	48.4	0	2	112	0.00	30.116 
15:55	66.6	66.6	66.6	54	49.4	1	3	248	0.00	30.116 
16:00	67.1	67.1	67.1	53	49.4	1	3	68	0.00	30.114 
16:05	67.3	67.3	67.3	51	48.5	0	2	68	0.00	30.114 
16:10	66.6	66.6	66.6	52	48.4	0	3	68	0.00	30.114 
16:15	66.1	66.1	66.1	53	48.5	0	2	68	0.00	30.115 
16:20	66.3	66.3	66.3	50	47.1	1	3	270	0.00	30.115 
16:25	66.6	66.6	66.6	52	48.4	0	2	270	0.00	30.115 
16:30	67.1	67.1	67.1	51	48.4	1	3	270	0.00	30.114 
16:35	66.9	66.9	66.9	54	49.7	0	1	292	0.00	30.114 
16:40	66.9	66.9	66.9	50	47.6	0	2	292	0.00	30.114 
16:45	67.3	67.3	67.3	55	50.6	0	1	292	0.00	30.113 
16:50	67.8	67.8	67.8	53	50.0	0	2	292	0.00	30.113 
16:55	67.6	67.6	67.6	51	48.8	0	2	292	0.00	30.113 
17:00	67.3	67.3	67.3	52	49.1	0	1	292	0.00	30.113 
17:05	67.4	67.4	67.4	48	47.0	0	2	315	0.00	30.113 
17:10	67.4	67.4	67.4	50	48.1	0	2	315	0.00	30.113 
17:15	67.6	67.6	67.6	51	48.8	0	1	315	0.00	30.112 
17:20	67.3	67.3	67.3	50	48.0	0	4	315	0.00	30.112 
17:25	66.6	66.6	66.6	52	48.4	0	1	270	0.00	30.112 
17:30	66.6	66.6	66.6	52	48.4	0	1	270	0.00	30.113 
17:35	66.9	66.9	66.9	53	49.2	0	3	292	0.00	30.113 
17:40	66.8	66.8	66.8	51	48.1	0	3	292	0.00	30.113 
17:45	66.4	66.4	66.4	53	48.7	0	3	292	0.00	30.114 
17:50	66.9	66.9	66.9	50	47.6	1	2	0	0.00	30.114 
17:55	67.3	67.3	67.3	48	46.9	1	3	315	0.00	30.114 
18:00	67.3	67.3	67.3	49	47.5	1	3	292	0.00	30.114 
18:05	67.4	67.4	67.4	47	46.5	1	3	0	0.00	30.114 
18:10	67.3	67.3	67.3	49	47.5	0	1	248	0.00	30.114 
18:15	66.9	66.9	66.9	47	46.0	0	1	338	0.00	30.119 
18:20	66.8	66.8	66.8	49	47.0	0	2	292	0.00	30.119 
18:25	66.8	66.8	66.8	51	48.1	0	2	292	0.00	30.119 
18:30	66.6	66.6	66.6	50	47.4	0	2	0	0.00	30.121 
18:35	66.3	66.3	66.3	49	46.6	0	2	0	0.00	30.121 
18:40	66.0	66.0	66.0	50	46.8	0	2	0	0.00	30.121 
18:45	65.8	65.8	65.8	52	47.7	0	1	0	0.00	30.130 
18:50	65.6	65.6	65.6	49	45.9	0	1	0	0.00	30.130 
18:55	65.6	65.6	65.6	53	48.0	0	1	0	0.00	30.130 
19:00	65.6	65.6	65.6	52	47.5	0	1	0	0.00	30.131 
19:05	65.5	65.5	65.5	51	46.9	0	1	0	0.00	30.131 
19:10	65.3	65.3	65.3	52	47.2	0	1	0	0.00	30.131 
19:15	65.2	65.2	65.2	52	47.1	0	0	---	0.00	30.132 
19:20	65.0	65.0	65.0	52	46.9	0	2	0	0.00	30.132 
19:25	64.8	64.8	64.8	54	47.8	0	1	0	0.00	30.132 
19:30	64.5	64.5	64.5	54	47.5	0	0	---	0.00	30.133 
19:35	64.3	64.3	64.3	56	48.3	0	0	---	0.00	30.133 
19:40	64.0	64.0	64.0	56	48.0	0	0	---	0.00	30.133 
19:45	63.9	63.9	63.9	56	47.9	0	0	---	0.00	30.138 
19:50	63.5	63.5	63.5	57	48.0	0	0	---	0.00	30.138 
19:55	63.4	63.4	63.4	58	48.4	0	0	---	0.00	30.138 
20:00	62.9	62.9	62.9	57	47.4	0	0	---	0.00	30.145 
20:05	62.7	62.7	62.7	58	47.7	0	0	---	0.00	30.145 
20:10	62.3	62.3	62.3	58	47.3	0	0	---	0.00	30.145 
20:15	62.0	62.0	62.0	60	48.0	0	0	---	0.00	30.146 
20:20	61.5	61.5	61.5	61	47.9	0	0	---	0.00	30.146 
20:25	61.0	61.0	61.0	61	47.5	0	0	---	0.00	30.146 
20:30	60.7	60.7	60.7	62	47.6	0	0	---	0.00	30.147 
20:35	60.2	60.2	60.2	63	47.6	0	0	---	0.00	30.147 
20:40	59.6	59.6	59.6	65	47.8	0	0	---	0.00	30.147 
20:45	59.2	59.2	59.2	68	48.6	0	0	---	0.00	30.149 
20:50	58.7	58.7	58.7	69	48.6	0	0	---	0.00	30.149 
20:55	58.3	58.3	58.3	71	48.9	0	0	---	0.00	30.149 
21:00	58.0	58.0	58.0	72	49.0	0	0	---	0.00	30.152 
21:05	57.5	57.5	57.5	73	48.9	0	0	---	0.00	30.152 
21:10	57.2	57.2	57.2	75	49.3	0	0	---	0.00	30.152 
21:15	56.9	56.9	56.9	76	49.4	0	0	---	0.00	30.163 
21:20	56.6	56.6	56.6	77	49.5	0	0	---	0.00	30.163 
21:25	56.5	56.5	56.5	78	49.7	0	0	---	0.00	30.163 
21:30	56.2	56.2	56.2	79	49.8	0	0	---	0.00	30.168 
21:35	55.9	55.9	55.9	80	49.8	0	0	---	0.00	30.168 
21:40	55.7	55.7	55.7	81	50.0	0	0	---	0.00	30.168 
21:45	55.4	55.4	55.4	81	49.7	0	0	---	0.00	30.172 
21:50	55.3	55.3	55.3	82	49.9	0	0	---	0.00	30.172 
21:55	55.0	55.0	55.0	83	49.9	0	0	---	0.00	30.172 
22:00	55.0	55.0	55.0	84	50.3	0	0	---	0.00	30.177 
22:05	55.0	55.0	55.0	84	50.3	0	0	---	0.00	30.177 
22:10	55.1	55.1	55.1	83	50.0	0	0	---	0.00	30.177 
22:15	55.6	55.6	55.6	82	50.2	0	0	---	0.00	30.184 
22:20	55.9	55.9	55.9	81	50.2	0	0	---	0.00	30.184 
22:25	56.0	56.0	56.0	80	49.9	0	0	---	0.00	30.184 
22:30	56.0	56.0	56.0	80	49.9	0	0	---	0.00	30.191 
22:35	55.9	55.9	55.9	80	49.8	0	0	---	0.00	30.191 
22:40	55.9	55.9	55.9	79	49.5	0	0	---	0.00	30.191 
22:45	55.9	55.9	55.9	79	49.5	0	0	---	0.00	30.194 
22:50	55.9	55.9	55.9	80	49.8	0	0	---	0.00	30.194 
22:55	55.9	55.9	55.9	80	49.8	0	0	---	0.00	30.194 
23:00	55.7	55.7	55.7	80	49.6	0	0	---	0.00	30.194 
23:05	55.7	55.7	55.7	81	50.0	0	0	---	0.00	30.194 
23:10	55.6	55.6	55.6	81	49.9	0	0	---	0.00	30.194 
23:15	55.4	55.4	55.4	81	49.7	0	0	---	0.00	30.193 
23:20	55.3	55.3	55.3	82	49.9	0	0	---	0.00	30.193 
23:25	55.1	55.1	55.1	82	49.7	0	0	---	0.00	30.193 
23:30	54.8	54.8	54.8	83	49.7	0	0	---	0.00	30.194 
23:35	54.7	54.7	54.7	83	49.6	0	0	---	0.00	30.194 
23:40	54.5	54.5	54.5	83	49.4	0	0	---	0.00	30.194 
23:45	54.5	54.5	54.5	83	49.4	0	0	---	0.00	30.195 
23:50	54.4	54.4	54.4	84	49.7	0	0	---	0.00	30.195 
23:55	54.2	54.2	54.2	84	49.5	0	0	---	0.00	30.195 

CoCoRaHS
IN-AL-39
A2 Web Hosting
Creative Commons License
GoDaddy
search engine by freefind advanced

loaded 2018-11-20 08:14:04 • last modified 2010-11-18 10:43:29
Privacy PolicyDisclaimer
• wx.awcolley.com is powered by PmWiki v.2002016 •
• all content (unless otherwise noted) © 2018 A W Colley